KRQO

El Reno Regional Airport

El Reno, Oklahoma, USA
METAR KRQO 212135Z AUTO 30007KT 10SM BKN095 34/13 A2991 RMK AO2 T03380133
Observed Flight Rules
Jun-21 @ 21:35 UTC (30 minutes ago) Visual Flight Rules
Wind Visibility Clouds
300° at 7 knots 10 miles
  • Broken at 9,500' AGL
Temperatures Readings
Current 34°C / 93°F
Dewpoint 13°C / 55°F
Humidity 28%
Altimeter 29.91" Hg
Pressure 1013 hPa
Elevation 432
METAR KRQO 212135Z AUTO 30007KT 10SM BKN095 34/13 A2991 RMK AO2 T03380133
Observed Flight Rules
Jun-21 @ 21:35 UTC
(30 minutes ago)
VFR
Wind Visibility
300° at 7 knots 10 miles
Clouds
  • Broken at 9,500' AGL
Temperature Dewpoint
34°C / 93°F 13°C / 55°F
Humidity Altimeter Pressure
28% 29.91" Hg 1013 hPa